Time;durP1;ratioP1;P1;durP2;ratioP2;P2;SDS_P1;SDS_P2;PMS_P1;PMS_P2;Temp;Humidity;BMP_temperature;BMP_pressure;BME280_temperature;BME280_humidity;BME280_pressure;Samples;Min_cycle;Max_cycle;Signal;HPM_P1;HPM_P2
2022/03/26 00:01:36;;;;;;;114.05;64.72;;;;;;;5.05;78.86;100739.50;4935707;29;20035;-87
2022/03/26 00:04:01;;;;;;;107.03;63.05;;;;;;;5.00;79.27;100730.06;4937239;29;20031;-88
2022/03/26 00:06:27;;;;;;;99.82;57.33;;;;;;;4.99;79.80;100730.09;4968203;28;20032;-88
2022/03/26 00:08:52;;;;;;;82.45;48.80;;;;;;;4.95;80.07;100729.25;4968142;28;20087;-88
2022/03/26 00:11:18;;;;;;;81.18;46.75;;;;;;;4.98;79.84;100728.38;4967900;28;20066;-87
2022/03/26 00:13:43;;;;;;;74.75;45.08;;;;;;;4.78;80.37;100700.09;4967431;28;20235;-86
2022/03/26 00:16:09;;;;;;;87.03;51.65;;;;;;;4.88;79.71;100722.41;4967821;28;20028;-88
2022/03/26 00:18:34;;;;;;;86.68;51.10;;;;;;;4.82;79.78;100719.00;4972892;28;20065;-87
2022/03/26 00:20:59;;;;;;;86.60;50.53;;;;;;;4.74;79.85;100704.41;4972744;28;20085;-86
2022/03/26 00:23:25;;;;;;;80.18;48.83;;;;;;;4.84;79.99;100725.88;4973037;28;20077;-90
2022/03/26 00:25:50;;;;;;;77.78;45.63;;;;;;;4.73;80.29;100710.47;4973334;28;20038;-89
2022/03/26 00:28:16;;;;;;;76.07;45.63;;;;;;;4.82;79.82;100724.19;4973620;28;20038;-89
2022/03/26 00:30:42;;;;;;;74.85;44.85;;;;;;;4.79;80.63;100724.19;4973247;28;20475;-89
2022/03/26 00:33:07;;;;;;;73.53;44.83;;;;;;;4.77;80.11;100713.88;4973433;28;20039;-89
2022/03/26 00:35:33;;;;;;;74.57;44.58;;;;;;;4.71;80.49;100707.00;4973383;28;20066;-89
2022/03/26 00:37:59;;;;;;;71.90;40.88;;;;;;;4.75;81.19;100716.44;4973084;28;20070;-89
2022/03/26 00:40:24;;;;;;;69.22;41.15;;;;;;;4.73;81.27;100718.19;4973078;28;20035;-89
2022/03/26 00:42:50;;;;;;;64.95;40.42;;;;;;;4.72;81.45;100718.22;4972939;28;20454;-89
2022/03/26 00:45:15;;;;;;;70.00;40.92;;;;;;;4.69;81.07;100718.22;4956812;28;20042;-87
2022/03/26 00:47:41;;;;;;;66.07;40.28;;;;;;;4.64;81.89;100704.50;4972634;28;20126;-88
2022/03/26 00:50:08;;;;;;;68.78;42.22;;;;;;;4.66;81.83;100713.94;4945662;28;20488;-89
2022/03/26 00:52:33;;;;;;;62.55;40.63;;;;;;;4.61;81.72;100712.25;4967928;28;20027;-89
2022/03/26 00:54:58;;;;;;;65.93;40.05;;;;;;;4.53;81.36;100699.38;4935420;29;20043;-88
2022/03/26 00:57:24;;;;;;;69.10;39.95;;;;;;;4.43;81.41;100690.00;4967473;28;20112;-87
2022/03/26 00:59:49;;;;;;;69.60;40.17;;;;;;;4.50;82.12;100710.56;4934992;28;20115;-89
2022/03/26 01:02:16;;;;;;;71.05;40.92;;;;;;;4.43;81.70;100696.00;4968192;28;20032;-90
2022/03/26 01:04:42;;;;;;;73.45;44.40;;;;;;;4.43;82.20;100698.59;4967230;28;20379;-88
2022/03/26 01:07:07;;;;;;;71.30;43.83;;;;;;;4.40;82.29;100695.16;4966936;28;20040;-87
2022/03/26 01:09:33;;;;;;;79.47;45.28;;;;;;;4.37;82.78;100696.00;4966948;28;20026;-87
2022/03/26 01:11:58;;;;;;;69.70;42.10;;;;;;;4.34;82.67;100696.06;4935802;29;20472;-87
2022/03/26 01:14:24;;;;;;;70.47;41.60;;;;;;;4.33;83.33;100691.72;4936189;29;20101;-87
2022/03/26 01:16:50;;;;;;;60.38;38.88;;;;;;;4.11;83.90;100659.16;4966566;28;20484;-88
2022/03/26 01:19:16;;;;;;;64.15;39.88;;;;;;;4.07;84.36;100654.88;4936285;29;20525;-87
2022/03/26 01:21:41;;;;;;;65.28;38.13;;;;;;;4.22;85.09;100685.78;4966105;28;20094;-87
2022/03/26 01:24:07;;;;;;;60.30;36.95;;;;;;;4.25;85.63;100691.75;4966763;28;20039;-88
2022/03/26 01:26:32;;;;;;;63.85;37.67;;;;;;;4.14;86.64;100669.47;4935807;29;20163;-87
2022/03/26 01:28:58;;;;;;;61.88;37.42;;;;;;;4.17;86.69;100683.22;4966548;28;20043;-87
2022/03/26 01:31:23;;;;;;;63.83;36.35;;;;;;;4.06;86.76;100673.81;4934434;28;20444;-86
2022/03/26 01:33:49;;;;;;;61.78;36.40;;;;;;;4.12;87.58;100681.50;4934036;28;20035;-87
2022/03/26 01:36:16;;;;;;;60.22;34.70;;;;;;;4.07;87.80;100672.94;4966273;28;20043;-85
2022/03/26 01:38:41;;;;;;;57.58;34.63;;;;;;;4.10;88.19;100684.09;4935225;29;20119;-85
2022/03/26 01:41:07;;;;;;;56.53;34.17;;;;;;;4.07;88.68;100683.25;4935516;29;20528;-85
2022/03/26 01:43:33;;;;;;;65.18;35.55;;;;;;;3.96;89.21;100660.97;4935464;29;20055;-85
2022/03/26 01:45:58;;;;;;;60.33;34.53;;;;;;;4.05;89.39;100685.00;4970897;28;20043;-85
2022/03/26 01:48:24;;;;;;;56.25;34.25;;;;;;;3.97;89.28;100678.13;4971302;28;20517;-85
2022/03/26 01:50:49;;;;;;;59.20;34.67;;;;;;;4.00;89.70;100683.28;4954741;28;20117;-85
2022/03/26 01:53:15;;;;;;;60.33;34.95;;;;;;;3.97;90.17;100683.28;4954943;28;20082;-86
2022/03/26 01:55:41;;;;;;;55.42;33.47;;;;;;;3.91;90.27;100665.25;4970807;28;20049;-86
2022/03/26 01:58:08;;;;;;;53.78;32.78;;;;;;;3.92;90.87;100672.13;4972758;28;20039;-91
2022/03/26 02:00:35;;;;;;;59.17;34.72;;;;;;;3.98;90.86;100678.97;4973161;28;20157;-92
2022/03/26 02:03:02;;;;;;;54.90;33.63;;;;;;;3.90;91.58;100675.56;4956490;28;20034;-91
2022/03/26 02:05:28;;;;;;;59.40;35.67;;;;;;;3.76;91.80;100652.44;4972645;28;20038;-92
2022/03/26 02:07:54;;;;;;;60.97;34.65;;;;;;;3.89;92.28;100679.88;4972745;28;20078;-92
2022/03/26 02:10:21;;;;;;;54.03;33.15;;;;;;;3.83;92.39;100674.72;4972873;28;20027;-91
2022/03/26 02:12:47;;;;;;;54.38;34.45;;;;;;;3.84;92.57;100678.19;4956692;28;20068;-91
2022/03/26 02:15:13;;;;;;;57.88;35.17;;;;;;;3.80;92.08;100661.88;4972564;28;20547;-91
2022/03/26 02:17:39;;;;;;;53.70;32.05;;;;;;;3.80;92.63;100664.44;4943212;28;20035;-91
2022/03/26 02:20:09;;;;;;;58.85;34.10;;;;;;;3.62;92.97;100638.69;4967333;28;20082;-91
2022/03/26 02:22:36;;;;;;;55.15;33.42;;;;;;;3.74;93.51;100664.44;4936618;29;20042;-90
2022/03/26 02:25:02;;;;;;;58.67;32.58;;;;;;;3.69;93.77;100655.88;4967275;28;20094;-91
2022/03/26 02:27:30;;;;;;;56.05;34.25;;;;;;;3.80;93.51;100673.91;4967384;28;20027;-90
2022/03/26 02:29:55;;;;;;;58.15;34.13;;;;;;;3.66;93.69;100650.72;4967061;28;20094;-91
2022/03/26 02:32:28;;;;;;;54.95;33.40;;;;;;;3.66;94.08;100659.31;4966757;28;20039;-91
2022/03/26 02:34:55;;;;;;;50.90;33.17;;;;;;;3.74;93.73;100669.59;4966466;28;20028;-93
2022/03/26 02:37:21;;;;;;;50.92;32.75;;;;;;;3.70;93.92;100657.59;4935836;28;20555;-90
2022/03/26 02:39:47;;;;;;;58.08;35.70;;;;;;;3.72;94.35;100668.75;4934576;28;20495;-91
2022/03/26 02:42:13;;;;;;;55.35;33.67;;;;;;;3.71;94.47;100675.63;4972240;28;20035;-91
2022/03/26 02:44:40;;;;;;;55.78;33.58;;;;;;;3.62;94.35;100649.00;4956549;28;20074;-91
2022/03/26 02:47:08;;;;;;;52.50;32.63;;;;;;;3.66;94.94;100658.44;4956491;28;20054;-92
2022/03/26 02:49:34;;;;;;;53.13;32.08;;;;;;;3.55;94.59;100644.75;4953355;28;20491;-91
2022/03/26 02:51:59;;;;;;;54.45;33.58;;;;;;;3.65;95.04;100664.47;4936085;29;20047;-90
2022/03/26 02:54:25;;;;;;;55.03;32.83;;;;;;;3.62;95.49;100660.16;4936422;29;20526;-90
2022/03/26 02:56:54;;;;;;;59.75;32.60;;;;;;;3.56;96.41;100654.19;4936418;29;20059;-91
2022/03/26 02:59:21;;;;;;;54.05;32.85;;;;;;;3.58;97.23;100658.50;4936531;29;20720;-90
2022/03/26 03:01:47;;;;;;;62.10;33.35;;;;;;;3.56;97.38;100660.19;4934883;28;20145;-89
2022/03/26 03:04:13;;;;;;;59.75;33.53;;;;;;;3.52;96.95;100661.06;4935325;29;20035;-88
2022/03/26 03:06:38;;;;;;;55.42;33.65;;;;;;;3.53;97.00;100651.59;4935583;29;20043;-91
2022/03/26 03:09:05;;;;;;;60.55;33.22;;;;;;;3.48;96.87;100642.16;4935703;29;20039;-88
2022/03/26 03:11:31;;;;;;;55.90;33.78;;;;;;;3.38;97.11;100640.50;4935389;29;20039;-89
2022/03/26 03:13:57;;;;;;;58.20;34.38;;;;;;;3.36;98.25;100649.06;4904084;29;20176;-88
2022/03/26 03:16:22;;;;;;;63.00;33.22;;;;;;;3.32;98.42;100637.03;4929001;28;20123;-88
2022/03/26 03:18:48;;;;;;;55.42;34.42;;;;;;;3.42;99.28;100661.94;4912978;29;20119;-89
2022/03/26 03:21:13;;;;;;;51.25;32.97;;;;;;;3.32;99.45;100629.31;4928939;29;20043;-89
2022/03/26 03:23:39;;;;;;;52.60;32.28;;;;;;;3.39;99.23;100649.91;4933336;28;20032;-89
2022/03/26 03:26:04;;;;;;;56.25;33.90;;;;;;;3.39;98.59;100657.66;4965247;28;20031;-89
2022/03/26 03:28:30;;;;;;;57.55;33.03;;;;;;;3.37;99.23;100651.66;4933803;28;20083;-90
2022/03/26 03:30:55;;;;;;;54.13;34.00;;;;;;;3.36;99.87;100646.47;4934787;29;20028;-90
2022/03/26 03:33:21;;;;;;;57.03;33.78;;;;;;;3.34;100.00;100653.38;4965839;28;20040;-90
2022/03/26 03:35:47;;;;;;;60.83;37.13;;;;;;;3.20;100.00;100636.22;4965914;28;20055;-90
2022/03/26 03:38:12;;;;;;;55.67;34.75;;;;;;;3.29;100.00;100652.50;4935250;29;20177;-90
2022/03/26 03:40:37;;;;;;;53.83;33.05;;;;;;;3.29;100.00;100655.06;4966017;28;20056;-90
2022/03/26 03:43:03;;;;;;;54.00;33.40;;;;;;;3.20;99.79;100630.19;4965429;28;20122;-89
2022/03/26 03:45:28;;;;;;;52.72;33.10;;;;;;;3.17;99.96;100633.63;4936121;29;20028;-91
2022/03/26 03:47:54;;;;;;;57.03;34.92;;;;;;;3.11;100.00;100625.91;4937880;29;20035;-91
2022/03/26 03:50:19;;;;;;;55.58;33.70;;;;;;;3.07;100.00;100621.63;4970391;28;20040;-89
2022/03/26 03:52:45;;;;;;;56.45;35.25;;;;;;;3.10;100.00;100633.63;4936713;28;20507;-89
2022/03/26 03:55:11;;;;;;;57.15;33.10;;;;;;;3.09;100.00;100634.50;4968562;28;20031;-89
2022/03/26 03:57:43;;;;;;;52.42;33.30;;;;;;;3.09;100.00;100632.78;4969081;28;20042;-89
2022/03/26 04:00:10;;;;;;;57.55;33.95;;;;;;;3.05;100.00;100632.78;4937739;29;20055;-88
2022/03/26 04:02:35;;;;;;;60.72;34.95;;;;;;;3.00;100.00;100622.50;4968712;28;20126;-89
2022/03/26 04:05:01;;;;;;;57.67;36.28;;;;;;;2.95;100.00;100617.34;4936130;28;20536;-89
2022/03/26 04:07:26;;;;;;;65.30;37.72;;;;;;;2.94;100.00;100619.91;4954142;28;20035;-89
2022/03/26 04:09:52;;;;;;;64.72;37.72;;;;;;;2.95;100.00;100626.75;4954221;29;20484;-89
2022/03/26 04:12:17;;;;;;;61.22;35.72;;;;;;;2.99;100.00;100641.34;4938217;29;20142;-90
2022/03/26 04:14:44;;;;;;;58.17;35.92;;;;;;;2.93;100.00;100623.34;4954047;29;20495;-89
2022/03/26 04:17:12;;;;;;;60.22;38.10;;;;;;;2.85;100.00;100619.91;4938380;29;20047;-89
2022/03/26 04:19:39;;;;;;;63.47;37.50;;;;;;;2.95;100.00;100634.47;4939294;29;20031;-92
2022/03/26 04:22:06;;;;;;;64.10;38.20;;;;;;;2.91;100.00;100630.22;4938092;29;20043;-88
2022/03/26 04:24:32;;;;;;;55.90;34.35;;;;;;;2.84;100.00;100616.50;4937617;29;20031;-88
2022/03/26 04:26:57;;;;;;;59.58;37.17;;;;;;;2.80;100.00;100616.50;4953374;28;20050;-86
2022/03/26 04:29:22;;;;;;;70.32;37.90;;;;;;;2.83;100.00;100627.63;4953499;28;20050;-86
2022/03/26 04:31:48;;;;;;;56.47;37.10;;;;;;;2.78;100.00;100615.63;4953450;28;20142;-84
2022/03/26 04:34:13;;;;;;;58.63;37.00;;;;;;;2.78;100.00;100615.63;4953367;28;20459;-85
2022/03/26 04:36:39;;;;;;;64.57;36.00;;;;;;;2.84;100.00;100628.50;4953351;28;20035;-85
2022/03/26 04:39:05;;;;;;;59.47;36.15;;;;;;;2.85;100.00;100633.63;4940138;29;20583;-85
2022/03/26 04:41:30;;;;;;;63.15;37.05;;;;;;;2.77;100.00;100625.03;4967241;28;20028;-86
2022/03/26 04:43:56;;;;;;;64.28;37.33;;;;;;;2.82;100.00;100632.75;4967316;28;20031;-88
2022/03/26 04:46:22;;;;;;;58.85;38.03;;;;;;;2.83;100.00;100640.50;4967559;28;20034;-88
2022/03/26 04:48:47;;;;;;;62.25;36.55;;;;;;;2.86;100.00;100642.19;4935182;29;20365;-90
2022/03/26 04:51:13;;;;;;;60.83;37.13;;;;;;;2.86;100.00;100637.06;4935968;29;20054;-89
2022/03/26 04:53:39;;;;;;;56.85;35.53;;;;;;;2.81;100.00;100628.47;4967637;28;20499;-88
2022/03/26 04:56:05;;;;;;;60.65;38.85;;;;;;;2.83;100.00;100629.34;4967196;28;20039;-87
2022/03/26 04:58:30;;;;;;;62.10;38.58;;;;;;;2.92;100.00;100645.66;4935670;28;20039;-87
2022/03/26 05:00:56;;;;;;;59.78;36.30;;;;;;;2.94;100.00;100640.50;4967003;28;20059;-88
2022/03/26 05:03:21;;;;;;;67.63;33.95;;;;;;;2.96;100.00;100628.50;4967204;28;20027;-88
2022/03/26 05:05:46;;;;;;;60.03;35.78;;;;;;;3.09;100.00;100637.94;4934754;29;20063;-88
2022/03/26 05:08:12;;;;;;;65.10;37.42;;;;;;;3.12;100.00;100631.91;4936076;29;20031;-88
2022/03/26 05:10:37;;;;;;;66.07;40.30;;;;;;;3.21;100.00;100624.19;4966947;28;20038;-87
2022/03/26 05:13:03;;;;;;;70.20;41.10;;;;;;;3.27;100.00;100620.75;4966748;28;20090;-88
2022/03/26 05:15:29;;;;;;;81.75;45.45;;;;;;;3.46;100.00;100630.19;4966771;28;20056;-88
2022/03/26 05:17:58;;;;;;;69.40;40.42;;;;;;;3.50;100.00;100616.44;4934828;29;20130;-89
2022/03/26 05:20:25;;;;;;;61.22;36.45;;;;;;;3.67;100.00;100630.13;4966965;28;20035;-88
2022/03/26 05:22:51;;;;;;;68.90;39.70;;;;;;;3.78;100.00;100619.78;4966482;28;20445;-88
2022/03/26 05:25:17;;;;;;;66.72;39.63;;;;;;;3.84;100.00;100598.28;4966431;28;20384;-88
2022/03/26 05:27:50;;;;;;;66.72;39.42;;;;;;;4.23;100.00;100630.75;4934716;28;20032;-88
2022/03/26 05:30:17;;;;;;;66.97;39.38;;;;;;;4.53;99.89;100621.13;4934579;28;20428;-87
2022/03/26 05:32:42;;;;;;;63.78;39.08;;;;;;;4.87;97.59;100617.44;4966511;28;20086;-88
2022/03/26 05:35:13;;;;;;;65.50;39.47;;;;;;;5.37;95.13;100616.13;4966201;28;20037;-88
2022/03/26 05:37:39;;;;;;;;;;;;;;;5.85;91.50;100618.19;4966729;28;20126;-88
2022/03/26 05:40:05;;;;;;;59.40;36.67;;;;;;;5.95;90.00;100614.69;4966122;28;20014;-89
2022/03/26 05:42:31;;;;;;;62.85;39.10;;;;;;;6.08;89.91;100617.97;4935884;29;20039;-87
2022/03/26 05:44:57;;;;;;;61.30;40.17;;;;;;;6.46;88.81;100615.72;4966023;28;20091;-86
2022/03/26 05:47:23;;;;;;;60.58;39.63;;;;;;;6.78;87.15;100605.75;4935484;29;20140;-86
2022/03/26 05:49:49;;;;;;;59.80;40.33;;;;;;;7.78;84.04;100618.66;4935221;29;20026;-87
2022/03/26 05:52:15;;;;;;;64.53;39.63;;;;;;;8.48;78.66;100588.66;4933999;28;20039;-86
2022/03/26 05:54:40;;;;;;;63.42;38.42;;;;;;;8.70;75.67;100601.13;4934085;29;20070;-86
2022/03/26 05:57:05;;;;;;;53.65;36.67;;;;;;;8.56;75.58;100616.19;4933913;28;20240;-89
2022/03/26 05:59:31;;;;;;;56.25;37.15;;;;;;;8.52;76.14;100617.16;4966117;28;20501;-88
2022/03/26 06:01:57;;;;;;;54.75;37.67;;;;;;;8.65;76.25;100601.25;4965775;28;20439;-88
2022/03/26 06:04:23;;;;;;;55.75;36.47;;;;;;;9.69;74.04;100602.91;4935195;29;20043;-86
2022/03/26 06:06:49;;;;;;;60.42;38.25;;;;;;;11.13;67.90;100611.56;4965465;28;20055;-89
2022/03/26 06:09:15;;;;;;;55.80;36.42;;;;;;;11.57;64.81;100609.19;4965908;28;20126;-87
2022/03/26 06:11:40;;;;;;;51.58;35.97;;;;;;;11.61;64.73;100605.56;4965759;28;20175;-88
2022/03/26 06:14:06;;;;;;;54.88;34.72;;;;;;;11.74;64.26;100598.97;4967269;28;20055;-92
2022/03/26 06:16:32;;;;;;;51.95;35.08;;;;;;;12.36;62.59;100611.50;4967211;28;20036;-87
2022/03/26 06:18:58;;;;;;;53.42;35.05;;;;;;;13.75;57.88;100599.66;4933928;28;20039;-90
2022/03/26 06:21:23;;;;;;;51.65;34.80;;;;;;;14.63;53.93;100602.56;4935027;29;20042;-89
2022/03/26 06:23:48;;;;;;;48.45;34.08;;;;;;;14.45;53.35;100596.41;4966113;28;20058;-90
2022/03/26 06:26:14;;;;;;;49.20;31.65;;;;;;;14.34;53.93;100611.78;4933776;29;20028;-89
2022/03/26 06:28:40;;;;;;;46.25;33.28;;;;;;;14.66;53.11;100604.19;4966201;28;20668;-92
2022/03/26 06:31:08;;;;;;;46.05;33.28;;;;;;;15.99;49.90;100607.06;4972210;28;20131;-92
2022/03/26 06:33:34;;;;;;;43.75;31.58;;;;;;;16.65;47.10;100602.50;4972751;28;20693;-93
2022/03/26 06:35:59;;;;;;;45.97;31.48;;;;;;;16.40;47.54;100612.72;4972503;28;20126;-93
2022/03/26 06:38:31;;;;;;;43.75;29.20;;;;;;;16.14;47.78;100604.47;4956054;28;20034;-92
2022/03/26 06:40:57;;;;;;;48.03;30.85;;;;;;;16.69;47.00;100606.66;4971862;28;20049;-91
2022/03/26 06:43:22;;;;;;;46.08;31.33;;;;;;;18.26;42.86;100602.59;4971650;28;20060;-93
2022/03/26 06:45:47;;;;;;;42.35;30.67;;;;;;;18.50;41.61;100611.59;4971554;28;20042;-88
2022/03/26 06:48:13;;;;;;;44.13;29.70;;;;;;;18.14;41.97;100612.97;4954796;28;20086;-91
2022/03/26 06:50:38;;;;;;;46.35;31.00;;;;;;;17.78;41.70;100581.84;4971299;28;20138;-79
2022/03/26 06:53:03;;;;;;;49.45;30.67;;;;;;;17.90;41.94;100578.44;4970298;28;20049;-78
2022/03/26 06:55:29;;;;;;;38.70;28.73;;;;;;;18.33;40.78;100595.97;4970375;28;20034;-78
2022/03/26 06:57:54;;;;;;;46.03;28.98;;;;;;;18.02;41.33;100592.63;4969888;28;20039;-78
2022/03/26 07:00:20;;;;;;;38.15;27.20;;;;;;;18.04;42.13;100584.66;4970408;28;20031;-78
2022/03/26 07:02:45;;;;;;;44.00;28.95;;;;;;;19.36;39.62;100598.00;4942451;28;20103;-78
2022/03/26 07:05:15;;;;;;;40.80;28.00;;;;;;;19.97;37.99;100590.28;4964878;28;20254;-78
2022/03/26 07:07:41;;;;;;;40.92;27.38;;;;;;;19.81;38.41;100593.19;4934658;29;20023;-90
2022/03/26 07:10:07;;;;;;;44.22;28.70;;;;;;;20.51;38.26;100600.53;4965172;28;20031;-88
2022/03/26 07:12:32;;;;;;;37.15;26.95;;;;;;;22.75;33.98;100595.47;4970241;28;20066;-89
2022/03/26 07:14:58;;;;;;;33.35;25.45;;;;;;;24.55;30.65;100584.41;4970540;28;20507;-88
2022/03/26 07:17:30;;;;;;;37.88;26.25;;;;;;;24.82;29.79;100591.72;4970500;28;20034;-94
2022/03/26 07:20:15;;;;;;;37.63;25.95;;;;;;;23.75;30.29;100590.59;4913204;29;20051;-88
2022/03/26 07:22:44;;;;;;;34.03;24.75;;;;;;;24.61;29.85;100604.34;4900724;29;20040;-88
2022/03/26 07:25:10;;;;;;;37.05;25.70;;;;;;;26.45;27.49;100587.88;4916181;29;20134;-88
2022/03/26 07:27:36;;;;;;;39.00;25.52;;;;;;;28.03;24.67;100582.53;4916560;29;20124;-88
2022/03/26 07:30:04;;;;;;;59.40;32.25;;;;;;;29.27;22.89;100586.06;4900535;29;20040;-88
2022/03/26 07:32:30;;;;;;;34.92;23.48;;;;;;;30.18;21.70;100567.84;4916534;29;20048;-88
2022/03/26 07:34:56;;;;;;;32.72;23.65;;;;;;;30.97;20.82;100577.41;4916013;29;20040;-88
2022/03/26 07:37:22;;;;;;;29.48;21.02;;;;;;;31.68;20.18;100577.84;4916329;29;20054;-88
2022/03/26 07:39:48;;;;;;;34.65;22.48;;;;;;;31.81;19.76;100577.19;4916315;29;20032;-88
2022/03/26 07:42:13;;;;;;;29.92;21.45;;;;;;;32.04;19.48;100577.13;4915992;29;20046;-88
2022/03/26 07:44:39;;;;;;;33.30;21.77;;;;;;;32.51;18.50;100570.41;4916040;29;20044;-88
2022/03/26 07:47:04;;;;;;;28.27;21.15;;;;;;;32.53;18.33;100555.72;4915858;29;20115;-88
2022/03/26 07:49:31;;;;;;;27.77;19.33;;;;;;;32.71;18.17;100570.59;4904511;29;20104;-80
2022/03/26 07:51:56;;;;;;;34.97;22.02;;;;;;;32.48;18.20;100570.78;4893780;29;20073;-86
2022/03/26 07:54:23;;;;;;;30.42;20.30;;;;;;;31.33;18.56;100575.91;4878491;29;20132;-86
2022/03/26 07:56:48;;;;;;;27.13;20.58;;;;;;;28.49;21.08;100570.44;4915173;28;20525;-87
2022/03/26 07:59:13;;;;;;;32.55;20.67;;;;;;;26.07;23.44;100564.88;4967462;28;20046;-87
2022/03/26 08:01:39;;;;;;;34.00;22.00;;;;;;;24.14;25.84;100572.09;4967850;28;20032;-87
2022/03/26 08:04:04;;;;;;;29.83;20.15;;;;;;;22.85;28.20;100571.69;4937199;29;20028;-88
2022/03/26 08:06:30;;;;;;;34.17;22.13;;;;;;;21.97;29.61;100572.63;4937257;29;20032;-87
2022/03/26 08:08:55;;;;;;;38.10;23.17;;;;;;;20.96;30.71;100577.75;4967844;28;20030;-86
2022/03/26 08:11:21;;;;;;;36.83;22.48;;;;;;;20.35;32.50;100569.88;4967958;28;20055;-86
2022/03/26 08:13:46;;;;;;;36.08;21.38;;;;;;;19.85;33.53;100566.41;4967656;28;20020;-86
2022/03/26 08:16:12;;;;;;;35.72;22.58;;;;;;;19.44;34.38;100559.53;4936756;29;20031;-87
2022/03/26 08:18:37;;;;;;;32.72;21.27;;;;;;;19.13;34.95;100573.13;4967963;28;20032;-87
2022/03/26 08:21:04;;;;;;;34.13;20.67;;;;;;;18.66;35.73;100554.22;4967636;28;20034;-87
2022/03/26 08:23:30;;;;;;;34.33;20.60;;;;;;;18.40;36.23;100563.00;4935798;28;20035;-87
2022/03/26 08:28:39;;;;;;;38.20;22.38;;;;;;;17.83;37.34;100561.34;4937015;29;20043;-87
2022/03/26 08:31:06;;;;;;;35.33;23.15;;;;;;;17.51;38.42;100544.84;4936599;29;20028;-86
2022/03/26 08:33:31;;;;;;;34.28;21.42;;;;;;;17.38;38.60;100555.25;4936801;29;20035;-88
2022/03/26 08:35:57;;;;;;;32.63;20.25;;;;;;;17.14;39.18;100547.03;4967404;28;20024;-87
2022/03/26 08:38:22;;;;;;;30.98;18.92;;;;;;;16.99;39.69;100534.81;4967145;28;20046;-86
2022/03/26 08:40:48;;;;;;;29.85;18.30;;;;;;;16.91;40.03;100524.72;4967200;28;20039;-85
2022/03/26 08:43:14;;;;;;;29.73;19.02;;;;;;;16.87;39.97;100525.84;4967258;28;20036;-85
2022/03/26 08:45:40;;;;;;;31.90;19.20;;;;;;;16.75;40.41;100525.72;4967574;28;20035;-88
2022/03/26 08:48:06;;;;;;;26.00;17.85;;;;;;;16.68;41.03;100540.97;4936813;29;20035;-90
2022/03/26 08:50:33;;;;;;;25.83;17.00;;;;;;;16.54;40.99;100525.16;4943350;28;20143;-83
2022/03/26 08:52:58;;;;;;;28.05;17.50;;;;;;;16.59;41.48;100528.34;4915815;29;20040;-87
2022/03/26 08:55:24;;;;;;;28.05;18.88;;;;;;;16.57;42.29;100530.22;4924195;29;20038;-83
2022/03/26 08:57:50;;;;;;;25.98;17.33;;;;;;;16.46;42.07;100520.31;4934840;29;20035;-82
2022/03/26 09:00:16;;;;;;;34.03;17.05;;;;;;;16.50;42.35;100534.97;4936098;29;20574;-81
2022/03/26 09:02:42;;;;;;;27.48;15.80;;;;;;;16.43;43.37;100534.50;4934637;29;20034;-87
2022/03/26 09:05:08;;;;;;;25.67;15.20;;;;;;;16.45;43.50;100532.63;4935105;28;20044;-89
2022/03/26 09:07:34;;;;;;;29.52;15.27;;;;;;;16.30;44.07;100511.59;4935328;29;20126;-81
2022/03/26 09:10:00;;;;;;;25.35;14.75;;;;;;;16.40;44.02;100529.41;4934545;29;20032;-84
2022/03/26 09:12:25;;;;;;;28.80;14.95;;;;;;;16.41;44.36;100532.88;4934508;29;20082;-83
2022/03/26 09:14:51;;;;;;;20.20;14.73;;;;;;;16.33;44.75;100522.78;4935680;29;20404;-83
2022/03/26 09:17:16;;;;;;;23.63;15.68;;;;;;;16.14;45.67;100496.72;4935509;29;20594;-82
2022/03/26 09:19:42;;;;;;;21.83;13.25;;;;;;;16.29;45.49;100523.91;4934179;29;20094;-82
2022/03/26 09:22:07;;;;;;;19.67;12.82;;;;;;;16.20;46.62;100525.28;4935431;29;20039;-83
2022/03/26 09:24:33;;;;;;;18.48;13.05;;;;;;;16.18;46.63;100508.75;4933965;28;20586;-83
2022/03/26 09:26:58;;;;;;;21.63;13.77;;;;;;;16.12;46.63;100498.56;4933547;29;20070;-83
2022/03/26 09:29:23;;;;;;;22.02;13.65;;;;;;;16.26;47.28;100513.56;4958131;28;20039;-83
2022/03/26 09:31:49;;;;;;;21.77;13.10;;;;;;;16.23;47.54;100505.88;4935655;29;20028;-81
2022/03/26 09:34:14;;;;;;;16.30;12.02;;;;;;;16.31;47.13;100502.81;4935009;29;20050;-83
2022/03/26 09:36:40;;;;;;;18.45;12.07;;;;;;;16.29;47.54;100512.53;4935143;29;20019;-83
2022/03/26 09:39:05;;;;;;;16.33;11.30;;;;;;;16.24;47.51;100499.66;4933606;29;20032;-85
2022/03/26 09:41:32;;;;;;;16.63;11.07;;;;;;;16.22;47.48;100506.78;4957763;28;20034;-84
2022/03/26 09:43:58;;;;;;;15.68;10.55;;;;;;;16.06;47.32;100506.81;4933461;28;20028;-85
2022/03/26 09:46:24;;;;;;;27.95;10.50;;;;;;;16.10;47.78;100521.47;4933951;29;20087;-85
2022/03/26 09:48:50;;;;;;;14.05;9.45;;;;;;;16.03;47.52;100503.50;4965839;28;20040;-82
2022/03/26 09:51:20;;;;;;;15.32;9.68;;;;;;;16.10;47.57;100510.97;4933690;29;20392;-82
2022/03/26 09:53:46;;;;;;;17.25;11.25;;;;;;;16.18;47.58;100518.38;4935593;29;20035;-82
2022/03/26 09:56:12;;;;;;;18.42;11.82;;;;;;;16.15;47.89;100513.31;4965689;28;20060;-82
2022/03/26 09:58:38;;;;;;;12.75;11.05;;;;;;;16.05;48.04;100496.38;4934052;28;20039;-82
2022/03/26 10:01:03;;;;;;;17.13;11.55;;;;;;;16.02;47.81;100489.53;4965651;28;20034;-82
2022/03/26 10:03:28;;;;;;;20.98;11.07;;;;;;;16.02;47.78;100479.00;4935161;29;20468;-82
2022/03/26 10:06:02;;;;;;;21.90;11.93;;;;;;;16.01;47.24;100495.69;4965655;28;20031;-82
2022/03/26 10:08:28;;;;;;;14.65;10.43;;;;;;;16.01;47.97;100476.44;4934995;29;20035;-82
2022/03/26 10:10:54;;;;;;;23.40;10.23;;;;;;;16.03;48.17;100503.50;4934911;29;20491;-82
2022/03/26 10:13:40;;;;;;;20.48;9.60;;;;;;;16.08;47.63;100518.06;4934917;29;20649;-82
2022/03/26 10:16:06;;;;;;;33.05;13.48;;;;;;;15.99;47.95;100473.06;4933468;29;20047;-81
2022/03/26 10:18:39;;;;;;;19.58;10.25;;;;;;;16.26;47.73;100496.94;4934990;29;20149;-82
2022/03/26 10:21:07;;;;;;;10.52;8.02;;;;;;;16.42;46.64;100493.34;4965330;28;20468;-82
2022/03/26 10:23:33;;;;;;;17.67;8.13;;;;;;;16.38;46.06;100515.50;4933496;29;20035;-82
2022/03/26 10:26:18;;;;;;;13.85;8.02;;;;;;;16.37;46.64;100497.19;4934658;29;20032;-82
2022/03/26 10:28:57;;;;;;;13.02;7.90;;;;;;;16.41;46.68;100485.56;4934743;29;20107;-82
2022/03/26 10:34:08;;;;;;;9.75;6.75;;;;;;;16.87;46.14;100489.00;4934695;29;20126;-82
2022/03/26 10:36:38;;;;;;;8.85;6.70;;;;;;;16.96;45.58;100485.81;4965572;28;20480;-82
2022/03/26 10:39:05;;;;;;;12.07;6.13;;;;;;;17.01;44.66;100482.91;4934409;29;20501;-82
2022/03/26 10:41:33;;;;;;;8.73;5.72;;;;;;;16.84;44.59;100457.63;4934568;29;20496;-81
2022/03/26 10:44:10;;;;;;;10.25;7.15;;;;;;;16.98;44.02;100495.41;4933292;29;20547;-82
2022/03/26 10:46:52;;;;;;;12.32;6.20;;;;;;;16.88;43.28;100479.34;4934702;29;20034;-82
2022/03/26 10:49:32;;;;;;;17.55;6.15;;;;;;;16.80;42.87;100478.94;4934465;29;20043;-82
2022/03/26 10:52:14;;;;;;;13.95;6.82;;;;;;;16.77;43.09;100489.63;4951175;29;20043;-82
2022/03/26 10:54:40;;;;;;;10.75;6.75;;;;;;;16.71;43.87;100489.03;4967296;28;20027;-81
2022/03/26 10:57:06;;;;;;;15.05;7.60;;;;;;;16.72;44.52;100481.97;4954540;29;20491;-82
2022/03/26 10:59:32;;;;;;;12.80;7.13;;;;;;;16.76;43.99;100486.16;4955139;29;20051;-82
2022/03/26 11:01:58;;;;;;;32.60;11.60;;;;;;;16.71;43.49;100477.66;4954952;29;20046;-82
2022/03/26 11:04:26;;;;;;;13.40;7.97;;;;;;;16.64;44.50;100481.59;4970850;28;20293;-82
2022/03/26 11:06:52;;;;;;;14.30;7.63;;;;;;;16.71;44.63;100489.03;4954921;29;20491;-82
2022/03/26 11:09:18;;;;;;;16.30;9.00;;;;;;;16.75;44.11;100471.31;4954761;29;20042;-82
2022/03/26 11:11:47;;;;;;;14.05;8.10;;;;;;;16.74;44.13;100453.00;4954956;29;20126;-82
2022/03/26 11:14:30;;;;;;;14.38;8.15;;;;;;;16.91;44.27;100469.47;4938370;29;20075;-82
2022/03/26 11:16:55;;;;;;;11.15;8.32;;;;;;;17.05;43.90;100475.69;4954888;29;20039;-82